Flight Briefing for CPX319

Departure Arrival
Washington Dulles International Airport (KIAD)
Click to view FAA NOTAMS
Seattle-Tacoma International Airport (KSEA)
Click to view FAA NOTAMS
Departure Time Arrival Time
N/A N/A
Aircraft Distance
B767-300BDSF 2001nm
Departure METAR Arrival METAR
KIAD 260952Z 01011G18KT 10SM SCT065 BKN080 03/M06 A3017 RMK AO2 SLP217 T00331056 $ KSEA 261007Z 17009KT 10SM -RA SCT019 BKN027 OVC042 07/04 A3004 RMK AO2 P0000 T00670044
Suggested Route
MCRAY2 MCRAY J518 IHD LEJOY J518 DJB J34 HASTE KP87M CESNA ISN MLP GLASR1


View recent IFR Routes data
Notes



Charts and Procedures

Charts for KIAD
No chart available
Charts for KSEA
No chart available

Windy.com Weather Map